METAR Data
IDs: Format: Raw Decoded Include TAF

Data at: 1350 UTC 21 Apr 2021

METAR for:KIIB (Independence Muni, IA, US)
Text:KIIB 211335Z AUTO 35006KT 10SM SCT060 BKN075 01/M06 A3017 RMK AO2 T00081059
Temperature: 0.8°C ( 33°F)
Dewpoint: -5.9°C ( 21°F) [RH = 61%]
Pressure (altimeter):30.17 inches Hg (1021.8 mb)
Winds:from the N (350 degrees) at 7 MPH (6 knots; 3.1 m/s)
Visibility:10 or more sm (16+ km)
Ceiling:7500 feet AGL
Clouds: scattered clouds at 6000 feet AGL, broken clouds at 7500 feet AGL
QC Flag:automated observation with no human augmentation